Carrollton, Texas
Current Conditions -  °F | °C
As of 3:50 PM on Saturday 25 Oct 2014 (Local Time) from KADS Reporting Station
Clear Clear  
Wind Chill: 86°   Ceiling: Unl
Heat Index: 86°   Visibility: 13mi
Dew Point: 59°   Wind: 6mph
Humidity: 40%   Direction: 140°SE
Pressure: 30.07"   Gusts: NA
Location:  32.98°N, 96.89°W
Report Text: KADS 252050Z 14005KT 13SM SKC 30/15 A3007
Loading
Personal Weather Stations






























Interactive Weather Map
Tropical Storm Tracking
New forecast layout! Learn more

10-Day Weather Forecast

Advertisements
Track Severe Weather on mobile